Jefferson City, Montana
Current Conditions -  °F | °C
As of 7:05 AM on Sunday 21 Dec 2014 (Local Time) from KHLN Reporting Station
Light Rain Light Rain  
Wind Chill: 32°   Ceiling: 2900
Heat Index: 36°   Visibility: 5mi
Dew Point: 33°   Wind: 5mph
Humidity: 89%   Direction: 230°SW
Pressure: 29.49"   Gusts: NA
Location:  46.39°N, 112.03°W
Report Text: KHLN 211405Z 23004KT 5SM -RA BR OVC029 02/01 A2949 RMK AO2 P0002 T00220006
Loading
Personal Weather Stations






























Interactive Weather Map New forecast layout! Learn more

10-Day Weather Forecast

Advertisements
Track Severe Weather on mobile